createdAt,value
2022-12-28T00:01:51.134Z,5.40
2022-12-28T00:04:18.123Z,5.40
2022-12-28T00:06:45.490Z,5.40
2022-12-28T00:09:13.199Z,5.40
2022-12-28T00:11:42.360Z,5.40
2022-12-28T00:14:11.775Z,5.40
2022-12-28T00:16:42.307Z,5.40
2022-12-28T00:19:16.464Z,5.40
2022-12-28T00:21:46.833Z,5.50
2022-12-28T00:24:22.424Z,5.50
2022-12-28T00:26:49.630Z,5.60
2022-12-28T00:29:17.926Z,5.50
2022-12-28T00:31:48.030Z,5.50
2022-12-28T00:34:15.410Z,5.50
2022-12-28T00:37:08.972Z,5.50
2022-12-28T00:39:29.848Z,5.50
2022-12-28T00:41:56.812Z,5.50
2022-12-28T00:44:23.748Z,5.50
2022-12-28T00:46:50.611Z,5.50
2022-12-28T00:49:18.310Z,5.50
2022-12-28T00:51:45.194Z,5.60
2022-12-28T00:54:16.726Z,5.50
2022-12-28T00:56:46.237Z,5.50
2022-12-28T00:59:14.769Z,5.50
2022-12-28T01:01:44.154Z,5.60
2022-12-28T01:04:11.328Z,5.50
2022-12-28T01:06:40.391Z,5.50
2022-12-28T01:09:09.333Z,5.50
2022-12-28T01:11:36.222Z,5.60
2022-12-28T01:14:05.445Z,5.60
2022-12-28T01:16:36.379Z,5.60
2022-12-28T01:19:04.630Z,5.60
2022-12-28T01:21:33.371Z,5.60
2022-12-28T01:24:05.599Z,5.50
2022-12-28T01:26:32.869Z,5.50
2022-12-28T01:28:59.801Z,5.50
2022-12-28T01:31:32.487Z,5.50
2022-12-28T01:34:01.792Z,5.60
2022-12-28T01:36:34.847Z,5.60
2022-12-28T01:39:08.915Z,5.60
2022-12-28T01:41:39.658Z,5.50
2022-12-28T01:44:07.229Z,5.50
2022-12-28T01:46:42.726Z,5.60
2022-12-28T01:49:16.464Z,5.50
2022-12-28T01:51:58.415Z,5.50
2022-12-28T01:54:29.842Z,5.50
2022-12-28T02:01:46.978Z,5.40
2022-12-28T02:04:14.127Z,5.40
2022-12-28T02:06:46.141Z,5.40
2022-12-28T02:09:26.342Z,5.40
2022-12-28T02:11:57.938Z,5.40
2022-12-28T02:14:25.235Z,5.40
2022-12-28T02:16:54.524Z,5.40
2022-12-28T02:19:33.096Z,5.40
2022-12-28T02:22:24.748Z,5.30
2022-12-28T02:25:36.607Z,5.30
2022-12-28T02:28:46.329Z,5.30
2022-12-28T02:31:39.595Z,5.30
2022-12-28T02:34:13.126Z,5.30
2022-12-28T02:36:51.750Z,5.30
2022-12-28T02:39:43.180Z,5.30
2022-12-28T02:42:13.817Z,5.30
2022-12-28T02:44:59.000Z,5.30
2022-12-28T02:47:44.479Z,5.30
2022-12-28T02:50:14.898Z,5.30
2022-12-28T02:53:20.544Z,5.30
2022-12-28T02:56:09.427Z,5.30
2022-12-28T02:59:01.092Z,5.30
2022-12-28T03:02:07.531Z,5.30
2022-12-28T03:05:42.218Z,5.30
2022-12-28T03:08:20.753Z,5.30
2022-12-28T03:10:57.858Z,5.30
2022-12-28T03:13:45.790Z,5.30
2022-12-28T03:16:57.422Z,5.30
2022-12-28T03:19:59.508Z,5.30
2022-12-28T03:22:51.336Z,5.20
2022-12-28T03:25:42.272Z,5.20
2022-12-28T03:28:33.636Z,5.20
2022-12-28T03:31:09.768Z,5.20
2022-12-28T03:33:47.924Z,5.30
2022-12-28T03:36:39.070Z,5.20
2022-12-28T03:39:35.594Z,5.20
2022-12-28T03:42:27.642Z,5.20
2022-12-28T03:45:46.363Z,5.20
2022-12-28T03:48:15.153Z,5.20
2022-12-28T03:50:44.977Z,5.20
2022-12-28T03:53:17.687Z,5.20
2022-12-28T03:55:44.683Z,5.20
2022-12-28T03:58:14.840Z,5.10
2022-12-28T04:00:41.986Z,5.10
2022-12-28T04:03:11.420Z,5.10
2022-12-28T04:05:38.301Z,5.10
2022-12-28T04:08:05.246Z,5.10
2022-12-28T04:10:32.074Z,5.10
2022-12-28T04:13:01.289Z,5.10
2022-12-28T04:15:54.539Z,5.00
2022-12-28T04:18:21.736Z,5.00
2022-12-28T04:20:48.663Z,5.00
2022-12-28T04:23:15.553Z,5.00
2022-12-28T04:25:42.391Z,5.00
2022-12-28T04:28:11.328Z,5.00
2022-12-28T04:31:17.226Z,5.00
2022-12-28T04:33:52.815Z,5.00
2022-12-28T04:36:22.000Z,5.00
2022-12-28T04:38:50.393Z,5.00
2022-12-28T04:41:19.665Z,5.00
2022-12-28T04:43:46.553Z,5.00
2022-12-28T04:46:15.361Z,5.10
2022-12-28T04:48:43.255Z,5.10
2022-12-28T04:51:24.697Z,5.10
2022-12-28T04:53:54.847Z,5.10
2022-12-28T04:56:23.803Z,5.00
2022-12-28T04:58:55.327Z,5.00
2022-12-28T05:01:26.897Z,5.00
2022-12-28T05:03:57.990Z,5.00
2022-12-28T05:06:27.693Z,5.00
2022-12-28T05:08:56.592Z,5.00
2022-12-28T05:11:26.181Z,5.00
2022-12-28T05:13:53.456Z,5.00
2022-12-28T05:16:24.959Z,5.00
2022-12-28T05:18:57.850Z,5.00
2022-12-28T05:21:26.841Z,5.00
2022-12-28T05:23:54.622Z,5.00
2022-12-28T05:26:24.384Z,5.00
2022-12-28T05:28:55.215Z,5.00
2022-12-28T05:31:23.984Z,5.00
2022-12-28T05:33:51.224Z,5.00
2022-12-28T05:36:27.650Z,5.00
2022-12-28T05:38:59.345Z,5.00
2022-12-28T05:41:28.213Z,5.00
2022-12-28T05:43:56.908Z,5.00
2022-12-28T05:46:30.100Z,5.00
2022-12-28T05:48:57.831Z,5.00
2022-12-28T05:51:27.752Z,5.00
2022-12-28T05:53:58.980Z,5.10
2022-12-28T05:56:28.854Z,5.10
2022-12-28T05:59:05.889Z,5.10
2022-12-28T06:01:35.273Z,5.10
2022-12-28T06:04:04.985Z,5.10
2022-12-28T06:06:35.996Z,5.10
2022-12-28T06:09:03.555Z,5.10
2022-12-28T06:11:32.936Z,5.10
2022-12-28T06:14:00.475Z,5.10
2022-12-28T06:16:33.162Z,5.10
2022-12-28T06:19:03.793Z,5.20
2022-12-28T06:21:33.272Z,5.20
2022-12-28T06:24:01.234Z,5.20
2022-12-28T06:26:32.678Z,5.20
2022-12-28T06:29:02.099Z,5.20
2022-12-28T06:31:35.317Z,5.20
2022-12-28T06:34:04.052Z,5.30
2022-12-28T06:36:38.367Z,5.30
2022-12-28T06:39:07.847Z,5.30
2022-12-28T06:41:35.184Z,5.30
2022-12-28T06:44:09.681Z,5.30
2022-12-28T06:46:39.312Z,5.30
2022-12-28T06:49:06.180Z,5.30
2022-12-28T06:51:36.266Z,5.30
2022-12-28T06:54:03.460Z,5.30
2022-12-28T06:56:32.629Z,5.30
2022-12-28T06:59:03.195Z,5.30
2022-12-28T07:01:34.847Z,5.30
2022-12-28T07:04:03.804Z,5.30
2022-12-28T07:06:34.368Z,5.30
2022-12-28T07:09:04.102Z,5.30
2022-12-28T07:11:31.379Z,5.20
2022-12-28T07:13:58.626Z,5.20
2022-12-28T07:18:56.134Z,5.20
2022-12-28T07:21:27.527Z,5.30
2022-12-28T07:23:57.558Z,5.30
2022-12-28T07:26:27.578Z,5.30
2022-12-28T07:28:58.721Z,5.30
2022-12-28T07:31:30.203Z,5.30
2022-12-28T07:33:59.384Z,5.30
2022-12-28T07:36:28.350Z,5.40
2022-12-28T07:38:55.261Z,5.40
2022-12-28T07:41:29.243Z,5.40
2022-12-28T07:44:01.580Z,5.40
2022-12-28T07:46:32.587Z,5.40
2022-12-28T07:49:01.935Z,5.40
2022-12-28T07:51:34.924Z,5.40
2022-12-28T07:54:02.403Z,5.40
2022-12-28T07:56:31.026Z,5.40
2022-12-28T07:59:00.851Z,5.50
2022-12-28T08:01:30.417Z,5.50
2022-12-28T08:04:22.198Z,5.50
2022-12-28T08:06:49.011Z,5.50
2022-12-28T08:09:15.981Z,5.60
2022-12-28T08:11:48.910Z,5.60
2022-12-28T08:14:15.775Z,5.60
2022-12-28T08:16:45.027Z,5.60
2022-12-28T08:19:16.332Z,5.60
2022-12-28T08:21:45.439Z,5.60
2022-12-28T08:24:20.136Z,5.70
2022-12-28T08:26:48.722Z,5.70
2022-12-28T08:29:20.987Z,5.70
2022-12-28T08:31:48.525Z,5.80
2022-12-28T08:34:27.041Z,5.80
2022-12-28T08:36:55.691Z,5.80
2022-12-28T08:39:22.538Z,5.80
2022-12-28T08:41:49.424Z,5.80
2022-12-28T08:44:16.299Z,5.80
2022-12-28T08:46:43.319Z,5.80
2022-12-28T08:49:12.726Z,5.90
2022-12-28T08:51:42.425Z,5.90
2022-12-28T08:54:11.307Z,5.90
2022-12-28T08:56:42.578Z,6.00
2022-12-28T08:59:11.654Z,6.00
2022-12-28T09:01:44.892Z,6.10
2022-12-28T09:04:18.173Z,6.10
2022-12-28T09:06:45.559Z,6.20
2022-12-28T09:09:17.268Z,6.20
2022-12-28T09:11:47.007Z,6.20
2022-12-28T09:18:34.504Z,6.30
2022-12-28T09:21:10.660Z,6.30
2022-12-28T09:23:37.865Z,6.30
2022-12-28T09:26:15.676Z,6.30
2022-12-28T09:28:52.758Z,6.40
2022-12-28T09:31:21.375Z,6.40
2022-12-28T09:36:51.280Z,6.40
2022-12-28T09:39:24.697Z,6.40
2022-12-28T09:41:56.659Z,6.50
2022-12-28T09:45:11.804Z,6.40
2022-12-28T09:47:59.004Z,6.50
2022-12-28T09:50:31.798Z,6.50
2022-12-28T09:53:03.121Z,6.50
2022-12-28T09:55:31.525Z,6.50
2022-12-28T09:57:59.898Z,6.60
2022-12-28T10:00:43.794Z,6.60
2022-12-28T10:03:40.084Z,6.70
2022-12-28T10:06:20.907Z,6.70
2022-12-28T10:09:00.034Z,6.70
2022-12-28T10:11:34.220Z,6.80
2022-12-28T10:14:14.567Z,6.80
2022-12-28T10:16:48.371Z,6.80
2022-12-28T10:19:22.561Z,6.80
2022-12-28T10:22:13.583Z,6.90
2022-12-28T10:24:41.540Z,6.90
2022-12-28T10:27:30.214Z,6.90
2022-12-28T10:30:01.206Z,6.90
2022-12-28T10:32:39.912Z,7.00
2022-12-28T10:35:07.216Z,6.90
2022-12-28T10:37:44.463Z,7.00
2022-12-28T10:40:36.918Z,7.00
2022-12-28T10:43:10.497Z,7.00
2022-12-28T10:45:46.193Z,7.00
2022-12-28T10:48:19.755Z,7.00
2022-12-28T10:51:17.616Z,7.10
2022-12-28T10:53:55.225Z,7.10
2022-12-28T10:56:26.547Z,7.10
2022-12-28T10:59:13.585Z,7.10
2022-12-28T11:01:42.176Z,7.10
2022-12-28T11:04:23.988Z,7.20
2022-12-28T11:06:57.776Z,7.20
2022-12-28T11:09:29.111Z,7.30
2022-12-28T11:12:22.840Z,7.30
2022-12-28T11:14:50.455Z,7.40
2022-12-28T11:17:28.182Z,7.40
2022-12-28T11:20:09.549Z,7.40
2022-12-28T11:22:37.665Z,7.50
2022-12-28T11:25:06.334Z,7.50
2022-12-28T11:27:35.216Z,7.50
2022-12-28T11:30:03.516Z,7.50
2022-12-28T11:32:39.419Z,7.60
2022-12-28T11:35:07.024Z,7.60
2022-12-28T11:37:33.888Z,7.60
2022-12-28T11:40:00.750Z,7.70
2022-12-28T11:42:39.950Z,7.70
2022-12-28T11:45:15.582Z,7.70
2022-12-28T11:47:42.748Z,7.80
2022-12-28T11:50:34.670Z,7.80
2022-12-28T11:53:04.729Z,7.80
2022-12-28T11:55:40.852Z,7.80
2022-12-28T11:58:29.727Z,7.80
2022-12-28T12:01:00.126Z,7.80
2022-12-28T12:03:58.230Z,7.80
2022-12-28T12:06:43.441Z,7.80
2022-12-28T12:09:23.722Z,7.80
2022-12-28T12:11:59.168Z,7.90
2022-12-28T12:14:32.025Z,7.90
2022-12-28T12:17:22.539Z,7.90
2022-12-28T12:19:57.136Z,8.00
2022-12-28T12:22:47.333Z,8.00
2022-12-28T12:25:23.848Z,8.10
2022-12-28T12:27:58.856Z,8.20
2022-12-28T12:30:27.221Z,8.30
2022-12-28T12:32:55.906Z,8.30
2022-12-28T12:35:28.738Z,8.40
2022-12-28T12:37:58.859Z,8.40
2022-12-28T12:40:37.687Z,8.50
2022-12-28T12:43:05.819Z,8.50
2022-12-28T12:45:52.527Z,8.50
2022-12-28T12:48:36.902Z,8.50
2022-12-28T12:51:26.665Z,8.60
2022-12-28T12:53:53.723Z,8.60
2022-12-28T12:56:39.103Z,8.70
2022-12-28T12:59:37.363Z,8.70
2022-12-28T13:02:07.697Z,8.70
2022-12-28T13:04:35.778Z,8.80
2022-12-28T13:07:06.368Z,8.80
2022-12-28T13:09:36.612Z,8.80
2022-12-28T13:12:10.558Z,8.80
2022-12-28T13:14:37.475Z,8.80
2022-12-28T13:17:04.703Z,8.80
2022-12-28T13:19:36.322Z,8.80
2022-12-28T13:22:05.584Z,8.70
2022-12-28T13:24:38.827Z,8.70
2022-12-28T13:27:19.077Z,8.70
2022-12-28T13:29:53.734Z,8.70
2022-12-28T13:32:38.601Z,8.70
2022-12-28T13:35:18.672Z,8.70
2022-12-28T13:38:09.185Z,8.70
2022-12-28T13:40:38.638Z,8.60
2022-12-28T13:43:39.724Z,8.60
2022-12-28T13:46:12.834Z,8.60
2022-12-28T13:48:47.120Z,8.60
2022-12-28T13:51:20.874Z,8.60
2022-12-28T13:53:53.707Z,8.50
2022-12-28T13:56:22.323Z,8.50
2022-12-28T13:58:54.059Z,8.50
2022-12-28T14:01:26.425Z,8.50
2022-12-28T14:04:08.789Z,8.50
2022-12-28T14:06:47.557Z,8.50
2022-12-28T14:09:15.546Z,8.50
2022-12-28T14:11:46.379Z,8.50
2022-12-28T14:14:17.175Z,8.50
2022-12-28T14:16:44.727Z,8.50
2022-12-28T14:19:14.518Z,8.40
2022-12-28T14:21:45.270Z,8.40
2022-12-28T14:24:15.513Z,8.40
2022-12-28T14:27:03.856Z,8.40
2022-12-28T14:29:37.325Z,8.40
2022-12-28T14:32:07.171Z,8.30
2022-12-28T14:34:37.338Z,8.30
2022-12-28T14:37:05.427Z,8.30
2022-12-28T14:39:35.766Z,8.30
2022-12-28T14:42:05.426Z,8.30
2022-12-28T14:44:38.171Z,8.30
2022-12-28T14:47:42.778Z,8.30
2022-12-28T14:50:25.331Z,8.30
2022-12-28T14:53:13.533Z,8.30
2022-12-28T14:56:12.202Z,8.30
2022-12-28T14:58:59.475Z,8.30
2022-12-28T15:01:44.780Z,8.30
2022-12-28T15:04:36.685Z,8.30
2022-12-28T15:07:05.400Z,8.30
2022-12-28T15:09:32.318Z,8.30
2022-12-28T15:12:23.109Z,8.30
2022-12-28T15:14:52.572Z,8.30
2022-12-28T15:17:19.544Z,8.30
2022-12-28T15:19:46.510Z,8.20
2022-12-28T15:22:13.785Z,8.20
2022-12-28T15:24:45.357Z,8.20
2022-12-28T15:27:12.656Z,8.20
2022-12-28T15:30:16.255Z,8.20
2022-12-28T15:32:31.719Z,8.20
2022-12-28T15:35:00.700Z,8.20
2022-12-28T15:37:29.453Z,8.20
2022-12-28T15:39:56.305Z,8.20
2022-12-28T15:42:23.169Z,8.20
2022-12-28T15:44:52.909Z,8.20
2022-12-28T15:47:20.863Z,8.20
2022-12-28T15:49:47.714Z,8.20
2022-12-28T15:52:14.632Z,8.20
2022-12-28T15:54:47.092Z,8.20
2022-12-28T15:57:15.634Z,8.20
2022-12-28T15:59:42.582Z,8.20
2022-12-28T16:02:12.940Z,8.20
2022-12-28T16:04:42.290Z,8.20
2022-12-28T16:07:11.748Z,8.20
2022-12-28T16:09:40.917Z,8.30
2022-12-28T16:12:08.095Z,8.30
2022-12-28T16:14:35.000Z,8.20
2022-12-28T16:17:06.712Z,8.30
2022-12-28T16:19:33.636Z,8.30
2022-12-28T16:22:00.737Z,8.30
2022-12-28T16:24:29.015Z,8.20
2022-12-28T16:26:55.909Z,8.20
2022-12-28T16:29:22.769Z,8.30
2022-12-28T16:31:52.917Z,8.30
2022-12-28T16:34:19.838Z,8.30
2022-12-28T16:36:47.568Z,8.30
2022-12-28T16:39:20.022Z,8.30
2022-12-28T16:41:46.870Z,8.30
2022-12-28T16:44:17.050Z,8.40
2022-12-28T16:46:46.533Z,8.40
2022-12-28T16:49:13.761Z,8.40
2022-12-28T16:51:43.725Z,8.40
2022-12-28T16:54:21.353Z,8.40
2022-12-28T17:01:14.000Z,8.40
2022-12-28T17:03:41.076Z,8.40
2022-12-28T17:06:14.030Z,8.40
2022-12-28T17:08:40.891Z,8.40
2022-12-28T17:11:09.644Z,8.40
2022-12-28T17:13:39.706Z,8.50
2022-12-28T17:16:07.236Z,8.40
2022-12-28T17:18:34.282Z,8.40
2022-12-28T17:21:07.020Z,8.40
2022-12-28T17:23:34.229Z,8.40
2022-12-28T17:26:01.101Z,8.30
2022-12-28T17:28:29.046Z,8.30
2022-12-28T17:31:14.138Z,8.30
2022-12-28T17:38:07.965Z,8.30
2022-12-28T17:40:40.062Z,8.30
2022-12-28T17:43:06.967Z,8.30
2022-12-28T17:45:37.028Z,8.30
2022-12-28T17:48:04.492Z,8.30
2022-12-28T17:50:33.351Z,8.30
2022-12-28T17:53:02.801Z,8.30
2022-12-28T17:55:29.674Z,8.30
2022-12-28T17:57:58.731Z,8.40
2022-12-28T18:00:26.233Z,8.40
2022-12-28T18:02:53.475Z,8.30
2022-12-28T18:05:22.640Z,8.40
2022-12-28T18:07:49.475Z,8.40
2022-12-28T18:10:19.157Z,8.40
2022-12-28T18:12:48.181Z,8.40
2022-12-28T18:15:15.351Z,8.40
2022-12-28T18:17:42.201Z,8.40
2022-12-28T18:20:09.559Z,8.40
2022-12-28T18:22:38.817Z,8.40
2022-12-28T18:25:08.789Z,8.40
2022-12-28T18:27:36.701Z,8.40
2022-12-28T18:30:03.947Z,8.40
2022-12-28T18:32:33.137Z,8.40
2022-12-28T18:35:02.693Z,8.50
2022-12-28T18:37:29.933Z,8.50
2022-12-28T18:39:59.323Z,8.40
2022-12-28T18:42:29.562Z,8.40
2022-12-28T18:44:56.636Z,8.40
2022-12-28T18:47:26.068Z,8.50
2022-12-28T18:49:54.303Z,8.50
2022-12-28T18:52:21.218Z,8.40
2022-12-28T18:54:48.059Z,8.40
2022-12-28T18:57:14.957Z,8.40
2022-12-28T18:59:41.771Z,8.40
2022-12-28T19:02:19.288Z,8.40
2022-12-28T19:04:47.877Z,8.40
2022-12-28T19:07:15.991Z,8.40
2022-12-28T19:10:08.084Z,8.40
2022-12-28T19:12:38.879Z,8.40
2022-12-28T19:15:09.068Z,8.40
2022-12-28T19:17:35.967Z,8.40
2022-12-28T19:20:06.809Z,8.30
2022-12-28T19:22:33.823Z,8.30
2022-12-28T19:25:00.857Z,8.30
2022-12-28T19:27:27.724Z,8.30
2022-12-28T19:29:54.586Z,8.30
2022-12-28T19:32:21.446Z,8.30
2022-12-28T19:34:53.590Z,8.20
2022-12-28T19:37:20.829Z,8.20
2022-12-28T19:39:54.740Z,8.20
2022-12-28T19:42:28.682Z,8.20
2022-12-28T19:44:55.780Z,8.20
2022-12-28T19:47:22.619Z,8.20
2022-12-28T19:49:49.479Z,8.20
2022-12-28T19:52:18.880Z,8.20
2022-12-28T19:54:45.702Z,8.20
2022-12-28T19:57:12.587Z,8.20
2022-12-28T19:59:41.796Z,8.20
2022-12-28T20:02:11.059Z,8.20
2022-12-28T20:04:38.171Z,8.20
2022-12-28T20:07:05.068Z,8.20
2022-12-28T20:09:32.064Z,8.20
2022-12-28T20:11:58.919Z,8.20
2022-12-28T20:14:25.843Z,8.20
2022-12-28T20:16:54.899Z,8.20
2022-12-28T20:19:21.788Z,8.20
2022-12-28T20:21:49.566Z,8.20
2022-12-28T20:24:17.618Z,8.20
2022-12-28T20:26:46.749Z,8.20
2022-12-28T20:29:16.227Z,8.20
2022-12-28T20:31:45.429Z,8.20
2022-12-28T20:34:14.352Z,8.20
2022-12-28T20:36:41.502Z,8.20
2022-12-28T20:39:08.443Z,8.20
2022-12-28T20:41:56.441Z,8.20
2022-12-28T20:44:26.173Z,8.20
2022-12-28T20:46:54.370Z,8.20
2022-12-28T20:49:22.715Z,8.20
2022-12-28T20:51:50.359Z,8.10
2022-12-28T20:54:17.617Z,8.10
2022-12-28T20:56:46.812Z,8.10
2022-12-28T20:59:19.670Z,8.10
2022-12-28T21:01:46.582Z,8.10
2022-12-28T21:04:13.592Z,8.10
2022-12-28T21:06:40.672Z,8.10
2022-12-28T21:09:09.961Z,8.10
2022-12-28T21:11:36.874Z,8.10
2022-12-28T21:14:03.793Z,8.10
2022-12-28T21:16:30.724Z,8.10
2022-12-28T21:18:57.609Z,8.10
2022-12-28T21:21:29.058Z,8.10
2022-12-28T21:23:56.156Z,8.20
2022-12-28T21:26:25.828Z,8.20
2022-12-28T21:28:55.410Z,8.20
2022-12-28T21:31:22.405Z,8.20
2022-12-28T21:33:49.223Z,8.20
2022-12-28T21:36:18.858Z,8.20
2022-12-28T21:38:47.510Z,8.20
2022-12-28T21:41:52.409Z,8.20
2022-12-28T21:44:21.931Z,8.20
2022-12-28T21:46:54.853Z,8.20
2022-12-28T21:49:24.173Z,8.20
2022-12-28T21:51:59.394Z,8.20
2022-12-28T21:54:26.856Z,8.20
2022-12-28T21:56:55.597Z,8.20
2022-12-28T21:59:24.215Z,8.30
2022-12-28T22:02:10.487Z,8.30
2022-12-28T22:05:02.587Z,8.30
2022-12-28T22:07:30.769Z,8.30
2022-12-28T22:10:16.498Z,8.30
2022-12-28T22:12:45.716Z,8.30
2022-12-28T22:15:32.794Z,8.30
2022-12-28T22:18:02.586Z,8.30
2022-12-28T22:20:30.701Z,8.30
2022-12-28T22:23:00.151Z,8.30
2022-12-28T22:25:28.719Z,8.30
2022-12-28T22:27:56.373Z,8.40
2022-12-28T22:30:24.130Z,8.40
2022-12-28T22:32:50.993Z,8.40
2022-12-28T22:35:18.154Z,8.40
2022-12-28T22:37:45.288Z,8.40
2022-12-28T22:40:12.533Z,8.40
2022-12-28T22:42:44.521Z,8.50
2022-12-28T22:45:13.603Z,8.50
2022-12-28T22:47:43.475Z,8.50
2022-12-28T22:50:12.829Z,8.50
2022-12-28T22:52:40.010Z,8.50
2022-12-28T22:55:07.694Z,8.50
2022-12-28T22:57:34.931Z,8.50
2022-12-28T23:00:07.269Z,8.50
2022-12-28T23:02:34.402Z,8.50
2022-12-28T23:05:01.504Z,8.50
2022-12-28T23:07:28.311Z,8.50
2022-12-28T23:09:55.339Z,8.50
2022-12-28T23:12:22.299Z,8.50
2022-12-28T23:15:07.548Z,8.50
2022-12-28T23:17:37.115Z,8.50
2022-12-28T23:20:25.273Z,8.50
2022-12-28T23:22:58.107Z,8.50
2022-12-28T23:25:43.802Z,8.50
2022-12-28T23:28:15.298Z,8.50
2022-12-28T23:30:46.184Z,8.50
2022-12-28T23:33:13.544Z,8.50
2022-12-28T23:35:42.466Z,8.50
2022-12-28T23:38:11.451Z,8.50
2022-12-28T23:40:40.049Z,8.50
2022-12-28T23:43:09.464Z,8.50
2022-12-28T23:45:36.589Z,8.50
2022-12-28T23:48:04.669Z,8.50
2022-12-28T23:50:31.614Z,8.50
2022-12-28T23:52:58.502Z,8.50
2022-12-28T23:55:27.819Z,8.50
2022-12-28T23:57:54.731Z,8.50
